sensor_id;sensor_type;location;lat;lon;timestamp;temperature;humidity
55369;DHT22;41247;49.736;8.752;2023-10-09T00:02:24;16.90;99.90
55369;DHT22;41247;49.736;8.752;2023-10-09T00:06:05;16.90;99.90
55369;DHT22;41247;49.736;8.752;2023-10-09T00:09:45;16.80;99.90
55369;DHT22;41247;49.736;8.752;2023-10-09T00:13:28;16.80;99.90
55369;DHT22;41247;49.736;8.752;2023-10-09T00:17:09;16.80;99.90
55369;DHT22;41247;49.736;8.752;2023-10-09T00:20:49;16.80;99.90
55369;DHT22;41247;49.736;8.752;2023-10-09T00:24:33;16.70;99.90
55369;DHT22;41247;49.736;8.752;2023-10-09T00:28:13;16.70;99.90
55369;DHT22;41247;49.736;8.752;2023-10-09T00:31:54;16.80;99.90
55369;DHT22;41247;49.736;8.752;2023-10-09T00:35:38;16.80;99.90
55369;DHT22;41247;49.736;8.752;2023-10-09T00:39:19;16.90;99.90
55369;DHT22;41247;49.736;8.752;2023-10-09T00:43:01;16.90;99.90
55369;DHT22;41247;49.736;8.752;2023-10-09T00:46:42;16.90;99.90
55369;DHT22;41247;49.736;8.752;2023-10-09T00:50:23;17.00;99.90
55369;DHT22;41247;49.736;8.752;2023-10-09T00:54:05;17.00;99.90
55369;DHT22;41247;49.736;8.752;2023-10-09T00:57:46;17.10;99.90
55369;DHT22;41247;49.736;8.752;2023-10-09T01:01:27;17.10;99.90
55369;DHT22;41247;49.736;8.752;2023-10-09T01:05:08;17.10;99.90
55369;DHT22;41247;49.736;8.752;2023-10-09T01:08:49;17.10;99.90
55369;DHT22;41247;49.736;8.752;2023-10-09T01:12:30;17.00;99.90
55369;DHT22;41247;49.736;8.752;2023-10-09T01:16:10;17.00;99.90
55369;DHT22;41247;49.736;8.752;2023-10-09T01:19:51;17.00;99.90
55369;DHT22;41247;49.736;8.752;2023-10-09T01:23:31;17.00;99.90
55369;DHT22;41247;49.736;8.752;2023-10-09T01:27:12;17.10;99.90
55369;DHT22;41247;49.736;8.752;2023-10-09T01:30:54;17.10;99.90
55369;DHT22;41247;49.736;8.752;2023-10-09T01:34:34;17.10;99.90
55369;DHT22;41247;49.736;8.752;2023-10-09T01:38:15;17.10;99.90
55369;DHT22;41247;49.736;8.752;2023-10-09T01:41:57;17.10;99.90
55369;DHT22;41247;49.736;8.752;2023-10-09T01:45:37;17.00;99.90
55369;DHT22;41247;49.736;8.752;2023-10-09T01:49:18;17.00;99.90
55369;DHT22;41247;49.736;8.752;2023-10-09T01:52:58;17.00;99.90
55369;DHT22;41247;49.736;8.752;2023-10-09T01:56:39;17.00;99.90
55369;DHT22;41247;49.736;8.752;2023-10-09T02:00:20;16.90;99.90
55369;DHT22;41247;49.736;8.752;2023-10-09T02:04:00;16.90;99.90
55369;DHT22;41247;49.736;8.752;2023-10-09T02:07:44;16.90;99.90
55369;DHT22;41247;49.736;8.752;2023-10-09T02:11:25;17.00;99.90
55369;DHT22;41247;49.736;8.752;2023-10-09T02:15:15;16.90;99.90
55369;DHT22;41247;49.736;8.752;2023-10-09T02:18:56;16.90;99.90
55369;DHT22;41247;49.736;8.752;2023-10-09T02:22:37;16.80;99.90
55369;DHT22;41247;49.736;8.752;2023-10-09T02:26:18;16.80;99.90
55369;DHT22;41247;49.736;8.752;2023-10-09T02:29:59;16.80;99.90
55369;DHT22;41247;49.736;8.752;2023-10-09T02:33:40;16.70;99.90
55369;DHT22;41247;49.736;8.752;2023-10-09T02:37:21;16.70;99.90
55369;DHT22;41247;49.736;8.752;2023-10-09T02:41:01;16.70;99.90
55369;DHT22;41247;49.736;8.752;2023-10-09T02:44:42;16.60;99.90
55369;DHT22;41247;49.736;8.752;2023-10-09T02:48:23;16.60;99.90
55369;DHT22;41247;49.736;8.752;2023-10-09T02:52:03;16.60;99.90
55369;DHT22;41247;49.736;8.752;2023-10-09T02:55:44;16.50;99.90
55369;DHT22;41247;49.736;8.752;2023-10-09T02:59:25;16.50;99.90
55369;DHT22;41247;49.736;8.752;2023-10-09T03:03:06;16.40;99.90
55369;DHT22;41247;49.736;8.752;2023-10-09T03:06:46;16.40;99.90
55369;DHT22;41247;49.736;8.752;2023-10-09T03:10:27;16.40;99.90
55369;DHT22;41247;49.736;8.752;2023-10-09T03:14:07;16.30;99.90
55369;DHT22;41247;49.736;8.752;2023-10-09T03:17:48;16.30;99.90
55369;DHT22;41247;49.736;8.752;2023-10-09T03:21:29;16.30;99.90
55369;DHT22;41247;49.736;8.752;2023-10-09T03:25:09;16.30;99.90
55369;DHT22;41247;49.736;8.752;2023-10-09T03:28:51;16.30;99.90
55369;DHT22;41247;49.736;8.752;2023-10-09T03:32:32;16.30;99.90
55369;DHT22;41247;49.736;8.752;2023-10-09T03:36:12;16.30;99.90
55369;DHT22;41247;49.736;8.752;2023-10-09T03:39:53;16.20;99.90
55369;DHT22;41247;49.736;8.752;2023-10-09T03:43:34;16.10;99.90
55369;DHT22;41247;49.736;8.752;2023-10-09T03:47:16;16.00;99.90
55369;DHT22;41247;49.736;8.752;2023-10-09T03:50:56;16.00;99.90
55369;DHT22;41247;49.736;8.752;2023-10-09T03:54:40;15.90;99.90
55369;DHT22;41247;49.736;8.752;2023-10-09T03:58:20;16.00;99.90
55369;DHT22;41247;49.736;8.752;2023-10-09T04:02:01;15.90;99.90
55369;DHT22;41247;49.736;8.752;2023-10-09T04:05:42;16.00;99.90
55369;DHT22;41247;49.736;8.752;2023-10-09T04:09:22;16.00;99.90
55369;DHT22;41247;49.736;8.752;2023-10-09T04:13:03;16.00;99.90
55369;DHT22;41247;49.736;8.752;2023-10-09T04:16:44;16.00;99.90
55369;DHT22;41247;49.736;8.752;2023-10-09T04:20:24;16.00;99.90
55369;DHT22;41247;49.736;8.752;2023-10-09T04:24:06;16.00;99.90
55369;DHT22;41247;49.736;8.752;2023-10-09T04:27:47;16.10;99.90
55369;DHT22;41247;49.736;8.752;2023-10-09T04:31:28;16.10;99.90
55369;DHT22;41247;49.736;8.752;2023-10-09T04:35:09;16.20;99.90
55369;DHT22;41247;49.736;8.752;2023-10-09T04:38:52;16.10;99.90
55369;DHT22;41247;49.736;8.752;2023-10-09T04:42:33;16.10;99.90
55369;DHT22;41247;49.736;8.752;2023-10-09T04:46:13;16.10;99.90
55369;DHT22;41247;49.736;8.752;2023-10-09T04:49:54;16.10;99.90
55369;DHT22;41247;49.736;8.752;2023-10-09T04:53:35;16.10;99.90
55369;DHT22;41247;49.736;8.752;2023-10-09T04:57:15;16.10;99.90
55369;DHT22;41247;49.736;8.752;2023-10-09T05:00:56;16.10;99.90
55369;DHT22;41247;49.736;8.752;2023-10-09T05:04:36;16.10;99.90
55369;DHT22;41247;49.736;8.752;2023-10-09T05:08:18;16.10;99.90
55369;DHT22;41247;49.736;8.752;2023-10-09T05:11:58;16.00;99.90
55369;DHT22;41247;49.736;8.752;2023-10-09T05:15:40;16.00;99.90
55369;DHT22;41247;49.736;8.752;2023-10-09T05:19:22;16.00;99.90
55369;DHT22;41247;49.736;8.752;2023-10-09T05:23:03;15.90;99.90
55369;DHT22;41247;49.736;8.752;2023-10-09T05:26:48;15.90;99.90
55369;DHT22;41247;49.736;8.752;2023-10-09T05:30:29;15.90;99.90
55369;DHT22;41247;49.736;8.752;2023-10-09T05:34:10;15.80;99.90
55369;DHT22;41247;49.736;8.752;2023-10-09T05:38:28;15.80;99.90
55369;DHT22;41247;49.736;8.752;2023-10-09T05:51:29;15.80;99.90
55369;DHT22;41247;49.736;8.752;2023-10-09T06:27:52;16.10;99.90
55369;DHT22;41247;49.736;8.752;2023-10-09T06:50:10;16.20;99.90
55369;DHT22;41247;49.736;8.752;2023-10-09T06:53:54;16.20;99.90
55369;DHT22;41247;49.736;8.752;2023-10-09T07:02:13;16.20;99.90
55369;DHT22;41247;49.736;8.752;2023-10-09T07:06:05;16.20;99.90
55369;DHT22;41247;49.736;8.752;2023-10-09T07:09:47;16.30;99.90
55369;DHT22;41247;49.736;8.752;2023-10-09T07:13:27;16.40;99.90
55369;DHT22;41247;49.736;8.752;2023-10-09T07:17:09;16.40;99.90
55369;DHT22;41247;49.736;8.752;2023-10-09T07:20:49;16.40;99.90
55369;DHT22;41247;49.736;8.752;2023-10-09T07:25:08;16.40;99.90
55369;DHT22;41247;49.736;8.752;2023-10-09T11:03:22;17.70;99.90
55369;DHT22;41247;49.736;8.752;2023-10-09T11:07:13;18.00;99.90
55369;DHT22;41247;49.736;8.752;2023-10-09T11:11:10;18.20;99.90
55369;DHT22;41247;49.736;8.752;2023-10-09T11:14:53;18.30;99.90
55369;DHT22;41247;49.736;8.752;2023-10-09T11:18:40;18.40;99.90
55369;DHT22;41247;49.736;8.752;2023-10-09T11:22:21;18.50;99.90
55369;DHT22;41247;49.736;8.752;2023-10-09T11:26:04;18.50;99.90
55369;DHT22;41247;49.736;8.752;2023-10-09T11:29:48;18.60;99.90
55369;DHT22;41247;49.736;8.752;2023-10-09T11:33:51;18.70;99.90
55369;DHT22;41247;49.736;8.752;2023-10-09T11:37:33;19.20;99.90
55369;DHT22;41247;49.736;8.752;2023-10-09T11:41:17;19.60;99.90
55369;DHT22;41247;49.736;8.752;2023-10-09T11:45:08;19.70;99.90
55369;DHT22;41247;49.736;8.752;2023-10-09T11:49:12;19.50;99.90
55369;DHT22;41247;49.736;8.752;2023-10-09T11:52:56;19.50;99.90
55369;DHT22;41247;49.736;8.752;2023-10-09T11:56:37;19.60;99.90
55369;DHT22;41247;49.736;8.752;2023-10-09T12:00:32;19.60;99.90
55369;DHT22;41247;49.736;8.752;2023-10-09T12:04:33;19.40;99.90
55369;DHT22;41247;49.736;8.752;2023-10-09T12:08:25;19.70;99.90
55369;DHT22;41247;49.736;8.752;2023-10-09T12:36:15;20.50;99.90
55369;DHT22;41247;49.736;8.752;2023-10-09T12:54:03;20.40;99.90
55369;DHT22;41247;49.736;8.752;2023-10-09T12:58:15;20.40;99.90
55369;DHT22;41247;49.736;8.752;2023-10-09T14:32:19;20.70;99.90
55369;DHT22;41247;49.736;8.752;2023-10-09T14:36:00;20.70;99.90
55369;DHT22;41247;49.736;8.752;2023-10-09T14:39:45;20.60;99.90
55369;DHT22;41247;49.736;8.752;2023-10-09T14:43:27;20.60;99.90
55369;DHT22;41247;49.736;8.752;2023-10-09T14:47:11;20.60;99.90
55369;DHT22;41247;49.736;8.752;2023-10-09T14:51:01;20.60;99.90
55369;DHT22;41247;49.736;8.752;2023-10-09T14:55:18;20.50;99.90
55369;DHT22;41247;49.736;8.752;2023-10-09T14:59:00;20.40;99.90
55369;DHT22;41247;49.736;8.752;2023-10-09T15:02:40;20.30;99.90
55369;DHT22;41247;49.736;8.752;2023-10-09T15:06:21;20.30;99.90
55369;DHT22;41247;49.736;8.752;2023-10-09T15:10:04;20.30;99.90
55369;DHT22;41247;49.736;8.752;2023-10-09T15:13:46;20.20;99.90
55369;DHT22;41247;49.736;8.752;2023-10-09T15:17:27;20.20;99.90
55369;DHT22;41247;49.736;8.752;2023-10-09T15:21:15;20.20;99.90
55369;DHT22;41247;49.736;8.752;2023-10-09T15:25:01;20.20;99.90
55369;DHT22;41247;49.736;8.752;2023-10-09T15:28:44;20.10;99.90
55369;DHT22;41247;49.736;8.752;2023-10-09T15:32:24;20.10;99.90
55369;DHT22;41247;49.736;8.752;2023-10-09T15:36:12;20.10;99.90
55369;DHT22;41247;49.736;8.752;2023-10-09T15:39:54;20.00;99.90
55369;DHT22;41247;49.736;8.752;2023-10-09T15:43:40;20.00;99.90
55369;DHT22;41247;49.736;8.752;2023-10-09T15:47:21;19.90;99.90
55369;DHT22;41247;49.736;8.752;2023-10-09T15:51:02;19.90;99.90
55369;DHT22;41247;49.736;8.752;2023-10-09T15:54:42;19.90;99.90
55369;DHT22;41247;49.736;8.752;2023-10-09T15:58:23;19.80;99.90
55369;DHT22;41247;49.736;8.752;2023-10-09T16:02:04;19.80;99.90
55369;DHT22;41247;49.736;8.752;2023-10-09T16:05:45;19.80;99.90
55369;DHT22;41247;49.736;8.752;2023-10-09T16:09:25;19.80;99.90
55369;DHT22;41247;49.736;8.752;2023-10-09T16:13:06;19.80;99.90
55369;DHT22;41247;49.736;8.752;2023-10-09T16:16:47;19.80;99.90
55369;DHT22;41247;49.736;8.752;2023-10-09T16:20:27;19.70;99.90
55369;DHT22;41247;49.736;8.752;2023-10-09T16:24:08;19.70;99.90
55369;DHT22;41247;49.736;8.752;2023-10-09T16:27:49;19.70;99.90
55369;DHT22;41247;49.736;8.752;2023-10-09T16:31:30;19.60;99.90
55369;DHT22;41247;49.736;8.752;2023-10-09T16:35:10;19.50;99.90
55369;DHT22;41247;49.736;8.752;2023-10-09T16:38:51;19.50;99.90
55369;DHT22;41247;49.736;8.752;2023-10-09T16:42:32;19.40;99.90
55369;DHT22;41247;49.736;8.752;2023-10-09T16:46:12;19.40;99.90
55369;DHT22;41247;49.736;8.752;2023-10-09T16:49:53;19.40;99.90
55369;DHT22;41247;49.736;8.752;2023-10-09T16:53:34;19.30;99.90
55369;DHT22;41247;49.736;8.752;2023-10-09T16:57:15;19.40;99.90
55369;DHT22;41247;49.736;8.752;2023-10-09T17:00:56;19.30;99.90
55369;DHT22;41247;49.736;8.752;2023-10-09T17:04:37;19.30;99.90
55369;DHT22;41247;49.736;8.752;2023-10-09T17:08:17;19.20;99.90
55369;DHT22;41247;49.736;8.752;2023-10-09T17:11:58;19.30;99.90
55369;DHT22;41247;49.736;8.752;2023-10-09T17:15:38;19.20;99.90
55369;DHT22;41247;49.736;8.752;2023-10-09T17:19:20;19.20;99.90
55369;DHT22;41247;49.736;8.752;2023-10-09T17:23:01;19.10;99.90
55369;DHT22;41247;49.736;8.752;2023-10-09T17:26:41;19.20;99.90
55369;DHT22;41247;49.736;8.752;2023-10-09T17:30:22;19.20;99.90
55369;DHT22;41247;49.736;8.752;2023-10-09T17:34:02;19.10;99.90
55369;DHT22;41247;49.736;8.752;2023-10-09T17:37:43;19.10;99.90
55369;DHT22;41247;49.736;8.752;2023-10-09T17:41:23;19.10;99.90
55369;DHT22;41247;49.736;8.752;2023-10-09T17:45:04;19.00;99.90
55369;DHT22;41247;49.736;8.752;2023-10-09T17:48:45;19.10;99.90
55369;DHT22;41247;49.736;8.752;2023-10-09T17:52:26;19.00;99.90
55369;DHT22;41247;49.736;8.752;2023-10-09T17:56:10;19.00;99.90
55369;DHT22;41247;49.736;8.752;2023-10-09T17:59:55;19.00;99.90
55369;DHT22;41247;49.736;8.752;2023-10-09T18:03:38;18.90;99.90
55369;DHT22;41247;49.736;8.752;2023-10-09T18:07:18;18.80;99.90
55369;DHT22;41247;49.736;8.752;2023-10-09T18:10:59;18.80;99.90
55369;DHT22;41247;49.736;8.752;2023-10-09T18:14:40;18.70;99.90
55369;DHT22;41247;49.736;8.752;2023-10-09T18:18:20;18.60;99.90
55369;DHT22;41247;49.736;8.752;2023-10-09T18:22:01;18.60;99.90
55369;DHT22;41247;49.736;8.752;2023-10-09T18:25:42;18.50;99.90
55369;DHT22;41247;49.736;8.752;2023-10-09T18:29:22;18.50;99.90
55369;DHT22;41247;49.736;8.752;2023-10-09T18:33:03;18.40;99.90
55369;DHT22;41247;49.736;8.752;2023-10-09T18:36:43;18.30;99.90
55369;DHT22;41247;49.736;8.752;2023-10-09T18:40:27;18.20;99.90
55369;DHT22;41247;49.736;8.752;2023-10-09T18:44:07;18.10;99.90
55369;DHT22;41247;49.736;8.752;2023-10-09T18:47:48;18.00;99.90
55369;DHT22;41247;49.736;8.752;2023-10-09T18:51:29;17.90;99.90
55369;DHT22;41247;49.736;8.752;2023-10-09T18:55:13;17.80;99.90
55369;DHT22;41247;49.736;8.752;2023-10-09T18:58:54;17.70;99.90
55369;DHT22;41247;49.736;8.752;2023-10-09T19:02:35;17.60;99.90
55369;DHT22;41247;49.736;8.752;2023-10-09T19:06:16;17.40;99.90
55369;DHT22;41247;49.736;8.752;2023-10-09T19:09:56;17.30;99.90
55369;DHT22;41247;49.736;8.752;2023-10-09T19:13:37;17.20;99.90
55369;DHT22;41247;49.736;8.752;2023-10-09T19:17:18;17.00;99.90
55369;DHT22;41247;49.736;8.752;2023-10-09T19:21:05;16.90;99.90
55369;DHT22;41247;49.736;8.752;2023-10-09T19:24:47;16.70;99.90
55369;DHT22;41247;49.736;8.752;2023-10-09T19:28:27;16.60;99.90
55369;DHT22;41247;49.736;8.752;2023-10-09T19:32:08;16.50;99.90
55369;DHT22;41247;49.736;8.752;2023-10-09T19:35:48;16.50;99.90
55369;DHT22;41247;49.736;8.752;2023-10-09T19:39:29;16.30;99.90
55369;DHT22;41247;49.736;8.752;2023-10-09T19:43:10;16.30;99.90
55369;DHT22;41247;49.736;8.752;2023-10-09T19:46:50;16.20;99.90
55369;DHT22;41247;49.736;8.752;2023-10-09T19:50:31;16.10;99.90
55369;DHT22;41247;49.736;8.752;2023-10-09T19:54:11;16.00;99.90
55369;DHT22;41247;49.736;8.752;2023-10-09T19:57:52;15.90;99.90
55369;DHT22;41247;49.736;8.752;2023-10-09T20:01:32;15.80;99.90
55369;DHT22;41247;49.736;8.752;2023-10-09T20:05:13;15.80;99.90
55369;DHT22;41247;49.736;8.752;2023-10-09T20:08:54;15.70;99.90
55369;DHT22;41247;49.736;8.752;2023-10-09T20:12:35;15.60;99.90
55369;DHT22;41247;49.736;8.752;2023-10-09T20:16:15;15.60;99.90
55369;DHT22;41247;49.736;8.752;2023-10-09T20:19:56;15.50;99.90
55369;DHT22;41247;49.736;8.752;2023-10-09T20:23:40;15.40;99.90
55369;DHT22;41247;49.736;8.752;2023-10-09T20:27:21;15.30;99.90
55369;DHT22;41247;49.736;8.752;2023-10-09T20:31:02;15.20;99.90
55369;DHT22;41247;49.736;8.752;2023-10-09T20:34:43;15.10;99.90
55369;DHT22;41247;49.736;8.752;2023-10-09T20:38:24;15.00;99.90
55369;DHT22;41247;49.736;8.752;2023-10-09T20:42:05;14.90;99.90
55369;DHT22;41247;49.736;8.752;2023-10-09T20:45:45;14.70;99.90
55369;DHT22;41247;49.736;8.752;2023-10-09T20:49:26;14.70;99.90
55369;DHT22;41247;49.736;8.752;2023-10-09T20:53:06;14.60;99.90
55369;DHT22;41247;49.736;8.752;2023-10-09T20:56:47;14.50;99.90
55369;DHT22;41247;49.736;8.752;2023-10-09T21:00:28;14.40;99.90
55369;DHT22;41247;49.736;8.752;2023-10-09T21:04:08;14.40;99.90
55369;DHT22;41247;49.736;8.752;2023-10-09T21:07:49;14.20;99.90
55369;DHT22;41247;49.736;8.752;2023-10-09T21:11:29;14.20;99.90
55369;DHT22;41247;49.736;8.752;2023-10-09T21:15:10;14.10;99.90
55369;DHT22;41247;49.736;8.752;2023-10-09T21:18:51;14.10;99.90
55369;DHT22;41247;49.736;8.752;2023-10-09T21:22:32;14.00;99.90
55369;DHT22;41247;49.736;8.752;2023-10-09T21:26:20;13.90;99.90
55369;DHT22;41247;49.736;8.752;2023-10-09T21:30:02;13.90;99.90
55369;DHT22;41247;49.736;8.752;2023-10-09T21:33:44;13.90;99.90
55369;DHT22;41247;49.736;8.752;2023-10-09T21:37:25;13.80;99.90
55369;DHT22;41247;49.736;8.752;2023-10-09T21:41:10;13.80;99.90
55369;DHT22;41247;49.736;8.752;2023-10-09T21:44:57;13.70;99.90
55369;DHT22;41247;49.736;8.752;2023-10-09T21:48:38;13.70;99.90
55369;DHT22;41247;49.736;8.752;2023-10-09T21:52:18;13.70;99.90
55369;DHT22;41247;49.736;8.752;2023-10-09T21:56:07;13.70;99.90
55369;DHT22;41247;49.736;8.752;2023-10-09T21:59:48;13.70;99.90
55369;DHT22;41247;49.736;8.752;2023-10-09T22:03:30;13.70;99.90
55369;DHT22;41247;49.736;8.752;2023-10-09T22:07:11;13.70;99.90
55369;DHT22;41247;49.736;8.752;2023-10-09T22:10:51;13.60;99.90
55369;DHT22;41247;49.736;8.752;2023-10-09T22:14:32;13.60;99.90
55369;DHT22;41247;49.736;8.752;2023-10-09T22:18:12;13.70;99.90
55369;DHT22;41247;49.736;8.752;2023-10-09T22:21:53;13.60;99.90
55369;DHT22;41247;49.736;8.752;2023-10-09T22:25:34;13.60;99.90
55369;DHT22;41247;49.736;8.752;2023-10-09T22:29:14;13.60;99.90
55369;DHT22;41247;49.736;8.752;2023-10-09T22:32:56;13.60;99.90
55369;DHT22;41247;49.736;8.752;2023-10-09T22:36:37;13.60;99.90
55369;DHT22;41247;49.736;8.752;2023-10-09T22:40:17;13.60;99.90
55369;DHT22;41247;49.736;8.752;2023-10-09T22:43:58;13.60;99.90
55369;DHT22;41247;49.736;8.752;2023-10-09T22:47:38;13.60;99.90
55369;DHT22;41247;49.736;8.752;2023-10-09T22:51:19;13.60;99.90
55369;DHT22;41247;49.736;8.752;2023-10-09T22:55:00;13.60;99.90
55369;DHT22;41247;49.736;8.752;2023-10-09T22:58:41;13.50;99.90
55369;DHT22;41247;49.736;8.752;2023-10-09T23:02:21;13.50;99.90
55369;DHT22;41247;49.736;8.752;2023-10-09T23:06:03;13.40;99.90
55369;DHT22;41247;49.736;8.752;2023-10-09T23:09:45;13.40;99.90
55369;DHT22;41247;49.736;8.752;2023-10-09T23:13:26;13.40;99.90
55369;DHT22;41247;49.736;8.752;2023-10-09T23:17:06;13.30;99.90
55369;DHT22;41247;49.736;8.752;2023-10-09T23:20:47;13.30;99.90
55369;DHT22;41247;49.736;8.752;2023-10-09T23:24:27;13.30;99.90
55369;DHT22;41247;49.736;8.752;2023-10-09T23:28:08;13.20;99.90
55369;DHT22;41247;49.736;8.752;2023-10-09T23:31:48;13.20;99.90
55369;DHT22;41247;49.736;8.752;2023-10-09T23:35:29;13.20;99.90
55369;DHT22;41247;49.736;8.752;2023-10-09T23:39:10;13.20;99.90
55369;DHT22;41247;49.736;8.752;2023-10-09T23:42:50;13.10;99.90
55369;DHT22;41247;49.736;8.752;2023-10-09T23:46:31;13.10;99.90
55369;DHT22;41247;49.736;8.752;2023-10-09T23:50:11;13.10;99.90
55369;DHT22;41247;49.736;8.752;2023-10-09T23:53:52;13.10;99.90
55369;DHT22;41247;49.736;8.752;2023-10-09T23:57:32;13.10;99.90
